Time;durP1;ratioP1;P1;durP2;ratioP2;P2;SDS_P1;SDS_P2;PMS_P1;PMS_P2;Temp;Humidity;BMP_temperature;BMP_pressure;BME280_temperature;BME280_humidity;BME280_pressure;Samples;Min_cycle;Max_cycle;Signal;HPM_P1;HPM_P2
2023/03/05 00:02:12;;;;;;;163.83;95.30;;;;;;;17.46;76.56;99444.84;5085368;28;20443;-61
2023/03/05 00:04:54;;;;;;;171.65;94.93;;;;;;;17.43;76.61;99442.59;5097879;28;20554;-62
2023/03/05 00:07:43;;;;;;;159.90;91.93;;;;;;;17.43;76.52;99450.63;5088446;28;20047;-60
2023/03/05 00:10:25;;;;;;;160.65;89.07;;;;;;;17.38;76.43;99451.28;5077889;28;20051;-61
2023/03/05 00:13:14;;;;;;;151.30;86.18;;;;;;;17.41;76.46;99447.34;5085394;28;20040;-61
2023/03/05 00:16:03;;;;;;;154.43;85.30;;;;;;;17.41;76.25;99463.41;5085360;28;20755;-61
2023/03/05 00:18:45;;;;;;;149.48;86.30;;;;;;;17.45;75.88;99464.63;5067313;28;20054;-61
2023/03/05 00:21:44;;;;;;;155.52;86.43;;;;;;;17.43;75.70;99462.16;5077529;28;20123;-61
2023/03/05 00:24:26;;;;;;;150.23;85.82;;;;;;;17.40;75.79;99462.59;5082944;28;20052;-61
2023/03/05 00:27:15;;;;;;;142.98;85.90;;;;;;;17.41;76.20;99469.59;5084041;28;20097;-61
2023/03/05 00:29:57;;;;;;;160.00;89.43;;;;;;;17.39;76.16;99471.66;5083580;28;20158;-60
2023/03/05 00:32:46;;;;;;;142.82;85.35;;;;;;;17.39;76.49;99479.69;5079703;28;20512;-61
2023/03/05 00:35:28;;;;;;;153.93;88.00;;;;;;;17.38;76.52;99472.72;5084818;28;20075;-63
2023/03/05 00:38:19;;;;;;;155.25;86.68;;;;;;;17.39;76.94;99470.84;5050886;28;20060;-61
2023/03/05 00:41:01;;;;;;;146.10;86.65;;;;;;;17.38;76.75;99475.38;5082586;28;20044;-61
2023/03/05 00:43:50;;;;;;;146.27;85.70;;;;;;;17.37;76.64;99472.91;5083260;28;20076;-61
2023/03/05 00:46:33;;;;;;;154.05;87.55;;;;;;;17.26;76.61;99490.50;5051332;28;20786;-62
2023/03/05 00:49:22;;;;;;;147.95;87.03;;;;;;;17.23;76.79;99490.94;5072743;28;20155;-62
2023/03/05 00:52:04;;;;;;;152.07;89.80;;;;;;;17.23;77.24;99498.13;5078409;28;20043;-60
2023/03/05 00:54:53;;;;;;;156.68;89.45;;;;;;;17.21;77.20;99497.53;5087015;28;20531;-61
2023/03/05 00:57:35;;;;;;;159.05;89.45;;;;;;;17.20;77.39;99506.59;5087754;28;20429;-61
2023/03/05 01:00:24;;;;;;;149.73;87.68;;;;;;;17.18;77.48;99504.13;5090736;28;20051;-63
2023/03/05 01:03:07;;;;;;;148.80;85.05;;;;;;;17.22;77.85;99505.34;5086811;28;20148;-61
2023/03/05 01:06:03;;;;;;;151.43;89.25;;;;;;;17.21;77.73;99510.94;5061635;28;20052;-63
2023/03/05 01:08:39;;;;;;;152.02;88.35;;;;;;;17.16;77.46;99513.44;5062812;28;20774;-63
2023/03/05 01:11:30;;;;;;;156.38;89.70;;;;;;;17.10;77.67;99519.63;5049029;28;20045;-61
2023/03/05 01:14:12;;;;;;;155.98;90.07;;;;;;;17.08;78.14;99529.75;5049045;28;20567;-62
2023/03/05 01:17:01;;;;;;;155.05;89.68;;;;;;;17.05;78.49;99531.81;5032299;28;20064;-62
2023/03/05 01:19:50;;;;;;;158.32;91.50;;;;;;;17.08;78.47;99531.38;5043170;28;20145;-61
2023/03/05 01:22:32;;;;;;;151.38;89.82;;;;;;;17.08;78.57;99532.41;5069701;28;20663;-61
2023/03/05 01:25:22;;;;;;;172.30;92.22;;;;;;;17.06;78.70;99530.78;5070737;28;20052;-61
2023/03/05 01:28:06;;;;;;;154.35;90.32;;;;;;;17.10;78.67;99541.03;5070669;28;20117;-63
2023/03/05 01:30:55;;;;;;;155.18;89.40;;;;;;;17.05;78.82;99545.19;5046352;28;20045;-62
2023/03/05 01:33:38;;;;;;;153.18;90.15;;;;;;;17.08;79.07;99544.75;5050326;28;20840;-60
2023/03/05 01:36:29;;;;;;;145.38;89.60;;;;;;;17.08;78.94;99545.81;5070322;28;20052;-62
2023/03/05 01:39:11;;;;;;;166.15;90.63;;;;;;;17.06;79.05;99554.03;5053419;28;20563;-61
2023/03/05 01:42:00;;;;;;;162.40;92.32;;;;;;;17.08;79.01;99555.44;5069583;28;20048;-60
2023/03/05 01:45:09;;;;;;;154.40;90.57;;;;;;;17.12;78.88;99557.72;5069159;28;20052;-60
2023/03/05 01:47:58;;;;;;;153.63;90.43;;;;;;;17.13;79.17;99565.53;5050371;28;20098;-62
2023/03/05 01:50:40;;;;;;;161.43;92.63;;;;;;;17.14;78.97;99563.66;5050644;28;20056;-60
2023/03/05 01:53:29;;;;;;;157.10;91.60;;;;;;;17.16;78.92;99565.13;5036653;28;20098;-60
2023/03/05 01:56:11;;;;;;;153.55;91.45;;;;;;;17.24;79.00;99569.38;5052670;28;20045;-60
2023/03/05 01:59:17;;;;;;;161.63;94.32;;;;;;;17.29;78.65;99573.06;5063498;28;20059;-61
2023/03/05 02:02:07;;;;;;;155.13;91.13;;;;;;;17.35;78.33;99579.41;5056562;28;20496;-62
2023/03/05 02:05:08;;;;;;;150.45;91.35;;;;;;;17.44;78.24;99573.59;5082289;27;20047;-62
2023/03/05 02:07:44;;;;;;;156.75;92.68;;;;;;;17.52;77.66;99584.03;5060623;28;20165;-61
2023/03/05 02:10:49;;;;;;;167.83;93.47;;;;;;;17.57;77.29;99580.72;5087329;28;20079;-61
2023/03/05 02:13:37;;;;;;;147.70;91.95;;;;;;;17.66;77.10;99590.16;5086591;28;20113;-61
2023/03/05 02:16:35;;;;;;;164.70;93.15;;;;;;;17.75;76.95;99598.75;5074969;28;20055;-62
2023/03/05 02:19:12;;;;;;;162.63;95.00;;;;;;;17.87;76.68;99607.78;5071200;28;20480;-60
2023/03/05 02:22:06;;;;;;;165.00;93.82;;;;;;;17.99;76.07;99602.53;5057231;28;20059;-60
2023/03/05 02:24:42;;;;;;;162.80;94.93;;;;;;;18.12;76.19;99610.44;5084823;28;20055;-60
2023/03/05 02:27:35;;;;;;;157.73;95.32;;;;;;;18.24;75.98;99606.00;5085861;28;20076;-61
2023/03/05 02:30:19;;;;;;;165.77;95.78;;;;;;;18.50;75.09;99613.81;5083361;28;20163;-61
2023/03/05 02:33:08;;;;;;;173.25;97.65;;;;;;;18.76;74.30;99612.78;5076829;28;20075;-62
2023/03/05 02:35:51;;;;;;;169.25;96.97;;;;;;;18.95;72.97;99616.25;5062650;28;20048;-60
2023/03/05 02:38:48;;;;;;;161.88;97.68;;;;;;;19.36;72.43;99623.63;5068089;28;20376;-61
2023/03/05 02:41:24;;;;;;;168.57;99.57;;;;;;;20.07;68.05;99626.34;5067066;28;20051;-63
2023/03/05 02:44:17;;;;;;;174.27;97.53;;;;;;;20.73;65.17;99630.63;5060222;28;20539;-60
2023/03/05 02:46:59;;;;;;;167.15;98.75;;;;;;;21.30;63.66;99631.56;5056320;28;20118;-61
2023/03/05 02:49:49;;;;;;;174.52;103.18;;;;;;;21.76;60.79;99642.19;5056948;28;20053;-60
2023/03/05 02:52:33;;;;;;;174.98;101.28;;;;;;;22.18;60.03;99636.44;5072657;28;20457;-62
2023/03/05 02:55:25;;;;;;;170.45;98.63;;;;;;;22.44;58.49;99640.41;5072031;28;20056;-63
2023/03/05 02:58:08;;;;;;;157.50;93.32;;;;;;;22.36;56.14;99645.13;5080023;28;20050;-61
2023/03/05 03:01:03;;;;;;;157.70;92.25;;;;;;;22.88;58.21;99649.44;5066123;28;20154;-62
2023/03/05 03:03:39;;;;;;;157.27;88.25;;;;;;;23.07;56.11;99654.28;5075304;27;20067;-63
2023/03/05 03:06:34;;;;;;;153.88;85.03;;;;;;;23.13;53.56;99647.06;5067494;28;20080;-62
2023/03/05 03:09:10;;;;;;;143.13;83.35;;;;;;;23.27;55.36;99654.56;5083199;28;20032;-61
2023/03/05 03:11:59;;;;;;;143.60;81.45;;;;;;;22.92;54.57;99656.81;5087016;28;20067;-62
2023/03/05 03:14:44;;;;;;;145.15;85.13;;;;;;;22.90;56.02;99664.34;5072614;28;20086;-61
2023/03/05 03:17:35;;;;;;;145.60;83.53;;;;;;;22.54;55.62;99667.53;5088090;28;20483;-60
2023/03/05 03:20:19;;;;;;;151.63;84.40;;;;;;;23.11;56.86;99668.94;5093470;28;20059;-61
2023/03/05 03:23:08;;;;;;;146.85;89.20;;;;;;;22.83;56.72;99674.50;5093502;28;20071;-61
2023/03/05 03:25:57;;;;;;;165.23;92.80;;;;;;;22.91;56.97;99665.16;5072882;28;20047;-61
2023/03/05 03:28:39;;;;;;;158.55;89.70;;;;;;;23.10;57.60;99670.00;5092139;28;20044;-60
2023/03/05 03:31:28;;;;;;;159.55;92.28;;;;;;;23.24;57.35;99668.56;5069701;28;20048;-61
2023/03/05 03:34:14;;;;;;;168.38;98.82;;;;;;;23.29;58.36;99670.53;5078419;28;20068;-61
2023/03/05 03:37:03;;;;;;;167.40;102.95;;;;;;;23.29;58.63;99668.63;5074457;28;20063;-60
2023/03/05 03:39:45;;;;;;;165.35;99.22;;;;;;;23.75;57.48;99665.69;5079478;28;20044;-60
2023/03/05 03:42:34;;;;;;;163.48;99.65;;;;;;;23.56;56.56;99676.84;5065196;28;20664;-61
2023/03/05 03:45:16;;;;;;;158.85;95.78;;;;;;;23.66;56.93;99678.84;5064200;28;20081;-61
2023/03/05 03:48:05;;;;;;;152.85;93.65;;;;;;;23.87;57.29;99679.88;5073466;28;20100;-62
2023/03/05 03:50:54;;;;;;;156.65;92.60;;;;;;;24.64;55.23;99688.44;5064939;28;20044;-61
2023/03/05 03:53:43;;;;;;;158.57;93.75;;;;;;;24.99;54.15;99694.13;5070001;28;20040;-63
2023/03/05 03:56:32;;;;;;;138.23;86.60;;;;;;;24.54;53.82;99685.66;5084260;28;20044;-61
2023/03/05 03:59:14;;;;;;;150.07;87.57;;;;;;;24.61;52.95;99686.22;5078300;28;20048;-61
2023/03/05 04:02:03;;;;;;;123.78;80.53;;;;;;;24.87;53.68;99695.41;5085286;28;20792;-62
2023/03/05 04:04:45;;;;;;;122.88;78.63;;;;;;;25.22;51.66;99687.47;5064764;28;20045;-63
2023/03/05 04:07:34;;;;;;;133.18;84.32;;;;;;;25.07;51.07;99689.28;5073470;28;20048;-61
2023/03/05 04:10:17;;;;;;;133.18;82.68;;;;;;;25.51;51.87;99682.44;5066997;28;20135;-61
2023/03/05 04:13:06;;;;;;;125.95;86.85;;;;;;;25.23;51.07;99694.50;5064741;28;20044;-62
2023/03/05 04:15:49;;;;;;;135.82;88.93;;;;;;;25.21;50.69;99696.69;5059229;28;20071;-61
2023/03/05 04:18:38;;;;;;;137.32;89.80;;;;;;;25.47;53.08;99694.91;5044100;28;20041;-62
2023/03/05 04:21:20;;;;;;;123.20;80.93;;;;;;;25.93;50.09;99693.19;5054208;28;20240;-61
2023/03/05 04:24:09;;;;;;;100.38;64.55;;;;;;;26.16;50.53;99689.13;5064910;28;20045;-64
2023/03/05 04:26:51;;;;;;;90.07;57.85;;;;;;;26.66;46.67;99693.78;5074373;28;20554;-60
2023/03/05 04:29:40;;;;;;;80.88;55.65;;;;;;;27.18;46.36;99687.97;5064589;28;20100;-62
2023/03/05 04:32:29;;;;;;;86.10;55.55;;;;;;;26.66;45.98;99686.44;5063695;28;20426;-62
2023/03/05 04:35:11;;;;;;;79.07;53.58;;;;;;;26.76;45.02;99694.59;5071947;28;20048;-62
2023/03/05 04:38:00;;;;;;;85.72;56.85;;;;;;;26.96;44.73;99688.31;5054208;28;20045;-61
2023/03/05 04:40:43;;;;;;;80.65;54.92;;;;;;;26.54;43.71;99685.09;5046097;28;20049;-61
2023/03/05 04:43:32;;;;;;;85.55;54.30;;;;;;;26.65;44.96;99687.53;5060093;28;20082;-60
2023/03/05 04:46:27;;;;;;;84.25;52.47;;;;;;;26.50;45.39;99690.28;5063236;28;20040;-60
2023/03/05 04:49:03;;;;;;;76.97;47.60;;;;;;;26.72;45.20;99692.69;5063234;28;20055;-63
2023/03/05 04:51:58;;;;;;;72.65;46.78;;;;;;;27.77;40.58;99689.94;5064094;28;20049;-60
2023/03/05 04:54:34;;;;;;;78.70;52.40;;;;;;;27.29;43.76;99697.75;5047497;28;20044;-61
2023/03/05 04:57:29;;;;;;;89.68;54.70;;;;;;;27.33;44.69;99696.09;5057101;28;20058;-62
2023/03/05 05:00:15;;;;;;;84.80;52.08;;;;;;;27.84;42.50;99693.97;5049153;28;20048;-62
2023/03/05 05:03:06;;;;;;;80.88;52.15;;;;;;;27.30;42.23;99698.56;5058588;28;20052;-62
2023/03/05 05:06:01;;;;;;;72.65;49.50;;;;;;;27.98;41.48;99702.34;5074161;28;20048;-62
2023/03/05 05:08:50;;;;;;;70.30;44.78;;;;;;;27.49;41.91;99697.69;5078053;28;20050;-63
2023/03/05 05:11:39;;;;;;;81.53;50.72;;;;;;;27.61;41.66;99692.75;5077633;28;20047;-61
2023/03/05 05:14:21;;;;;;;80.63;47.75;;;;;;;27.47;42.42;99696.31;5078889;28;20044;-60
2023/03/05 05:17:10;;;;;;;64.25;36.75;;;;;;;28.12;41.33;99693.28;5074097;28;20478;-61
2023/03/05 05:19:53;;;;;;;45.17;30.90;;;;;;;28.62;40.13;99691.25;5089301;28;20048;-61
2023/03/05 05:22:42;;;;;;;53.97;33.97;;;;;;;28.14;39.63;99690.28;5089670;28;20075;-63
2023/03/05 05:25:25;;;;;;;52.85;32.60;;;;;;;28.12;40.41;99701.47;5090834;28;20048;-65
2023/03/05 05:28:16;;;;;;;58.25;33.60;;;;;;;28.02;38.42;99687.88;5076314;28;20071;-63
2023/03/05 05:30:58;;;;;;;47.78;29.92;;;;;;;28.09;40.75;99699.28;5080560;28;20128;-62
2023/03/05 05:33:48;;;;;;;59.92;35.13;;;;;;;28.04;38.92;99693.03;5079360;28;20125;-61
2023/03/05 05:36:30;;;;;;;61.63;36.45;;;;;;;28.08;41.21;99685.94;5081811;28;20386;-63
2023/03/05 05:39:19;;;;;;;45.35;26.00;;;;;;;28.30;38.80;99686.34;5084180;28;20480;-63
2023/03/05 05:42:02;;;;;;;39.85;23.35;;;;;;;28.72;38.18;99690.38;5087899;28;20048;-60
2023/03/05 05:44:51;;;;;;;45.92;25.30;;;;;;;28.64;37.95;99689.03;5088204;28;20051;-60
2023/03/05 05:47:34;;;;;;;47.13;28.70;;;;;;;29.22;39.60;99687.09;5101716;28;20480;-61
2023/03/05 05:50:26;;;;;;;33.88;21.45;;;;;;;29.20;37.69;99683.06;5091439;28;20063;-60
2023/03/05 05:53:21;;;;;;;39.70;23.77;;;;;;;29.06;38.49;99677.47;5094903;28;20059;-59
2023/03/05 05:55:57;;;;;;;44.67;28.33;;;;;;;29.14;38.98;99681.47;5097054;28;20395;-60
2023/03/05 05:58:53;;;;;;;;;;;;;;;28.99;37.64;99679.72;5095605;28;20608;-60
2023/03/05 06:01:31;;;;;;;39.90;22.95;;;;;;;29.17;37.11;99667.25;5081926;28;19963;-60
2023/03/05 06:04:20;;;;;;;41.22;20.95;;;;;;;29.55;37.34;99660.81;5086495;28;20052;-62
2023/03/05 06:07:10;;;;;;;40.78;25.52;;;;;;;29.48;36.90;99664.97;5048081;28;20051;-60
2023/03/05 06:10:09;;;;;;;41.78;25.80;;;;;;;29.15;37.40;99666.75;5049440;28;20576;-62
2023/03/05 06:12:45;;;;;;;40.05;21.95;;;;;;;29.18;38.27;99661.50;5047522;28;20442;-60
2023/03/05 06:15:41;;;;;;;33.72;20.50;;;;;;;29.07;37.83;99656.47;5051111;28;20048;-60
2023/03/05 06:18:17;;;;;;;34.88;17.50;;;;;;;29.13;37.00;99652.56;5071801;28;20142;-60
2023/03/05 06:21:09;;;;;;;40.17;21.55;;;;;;;29.17;37.15;99648.16;5065920;28;20057;-61
2023/03/05 06:23:53;;;;;;;26.20;13.70;;;;;;;28.76;34.26;99640.44;5068810;28;20048;-70
2023/03/05 06:26:42;;;;;;;27.50;11.45;;;;;;;28.96;35.65;99631.22;5074042;28;20048;-64
2023/03/05 06:29:24;;;;;;;37.42;17.40;;;;;;;28.63;35.33;99623.91;5067225;28;20048;-67
2023/03/05 06:32:21;;;;;;;34.65;16.52;;;;;;;29.12;37.47;99616.28;5072403;28;20474;-64
2023/03/05 06:34:57;;;;;;;35.85;18.80;;;;;;;29.28;36.61;99616.91;5067320;28;20553;-60
2023/03/05 06:37:52;;;;;;;35.47;18.70;;;;;;;29.45;37.29;99612.59;5064589;28;20125;-60
2023/03/05 06:40:29;;;;;;;42.05;21.75;;;;;;;29.31;37.14;99603.50;5063754;28;20044;-61
2023/03/05 06:43:25;;;;;;;26.38;14.25;;;;;;;29.36;34.22;99589.00;5061410;28;20055;-61
2023/03/05 06:46:03;;;;;;;24.90;13.55;;;;;;;29.39;38.61;99591.94;5061024;28;20040;-61
2023/03/05 06:49:01;;;;;;;24.77;12.77;;;;;;;29.23;37.71;99582.31;5062331;28;20434;-62
2023/03/05 06:51:39;;;;;;;23.98;12.60;;;;;;;29.20;36.27;99579.38;5065673;28;20052;-62
2023/03/05 06:54:28;;;;;;;18.13;10.50;;;;;;;29.47;36.19;99567.84;5040108;28;20053;-61
2023/03/05 06:57:10;;;;;;;17.98;10.02;;;;;;;29.46;35.93;99569.75;5065189;28;20583;-61
2023/03/05 07:00:09;;;;;;;19.60;10.50;;;;;;;29.20;34.45;99561.06;5083330;28;20835;-60
2023/03/05 07:02:45;;;;;;;17.42;10.20;;;;;;;29.31;33.99;99570.75;5040170;28;20055;-60
2023/03/05 07:05:39;;;;;;;13.68;9.80;;;;;;;29.06;35.03;99553.91;5057958;28;20068;-61
2023/03/05 07:08:15;;;;;;;18.05;10.10;;;;;;;29.18;36.04;99555.09;5075058;28;20048;-61
2023/03/05 07:11:16;;;;;;;15.25;8.73;;;;;;;29.10;33.56;99549.47;5082191;28;20057;-60
2023/03/05 07:13:52;;;;;;;13.75;8.25;;;;;;;29.05;35.06;99553.09;5082119;28;20581;-60
2023/03/05 07:16:47;;;;;;;;;;;;;;;28.92;35.85;99542.88;5075425;28;20688;-59
2023/03/05 07:19:23;;;;;;;18.52;12.10;;;;;;;28.94;36.68;99538.75;5085741;28;19924;-62
2023/03/05 07:22:11;;;;;;;15.40;8.60;;;;;;;29.02;36.05;99529.13;5095302;28;20081;-63
2023/03/05 07:24:53;;;;;;;17.15;8.00;;;;;;;28.98;35.84;99520.72;5094945;28;20063;-60
2023/03/05 07:27:42;;;;;;;16.42;10.35;;;;;;;28.91;36.65;99513.97;5093816;28;20375;-61
2023/03/05 07:30:32;;;;;;;16.70;10.55;;;;;;;29.05;37.46;99506.72;5084868;28;20123;-61
2023/03/05 07:33:14;;;;;;;19.38;11.82;;;;;;;28.87;36.83;99500.13;5090931;28;20070;-61
2023/03/05 07:36:03;;;;;;;19.65;9.57;;;;;;;29.04;36.09;99494.16;5089015;28;20058;-62
2023/03/05 07:38:45;;;;;;;15.20;11.13;;;;;;;29.05;36.87;99487.59;5077310;28;20174;-60
2023/03/05 07:41:34;;;;;;;13.40;8.75;;;;;;;29.09;35.48;99487.81;5070902;28;20763;-61
2023/03/05 07:44:17;;;;;;;12.57;10.00;;;;;;;28.78;37.08;99471.88;5065420;28;20118;-60
2023/03/05 07:47:06;;;;;;;14.80;9.43;;;;;;;28.92;36.76;99471.97;5077395;28;20138;-60
2023/03/05 07:49:49;;;;;;;16.80;10.02;;;;;;;28.96;37.80;99462.09;5089806;28;20044;-61
2023/03/05 07:52:37;;;;;;;24.65;9.77;;;;;;;29.07;35.84;99451.84;5087216;28;20044;-60
2023/03/05 07:55:19;;;;;;;14.10;9.27;;;;;;;28.91;35.83;99453.97;5079636;28;20055;-60
2023/03/05 07:58:08;;;;;;;15.82;8.82;;;;;;;28.86;36.81;99443.13;5095742;28;20086;-61
2023/03/05 08:00:50;;;;;;;13.40;7.70;;;;;;;28.82;36.29;99442.91;5084030;28;20634;-60
2023/03/05 08:03:39;;;;;;;11.18;8.80;;;;;;;28.54;36.11;99444.66;5079852;28;20052;-59
2023/03/05 08:06:21;;;;;;;14.43;7.93;;;;;;;28.79;35.19;99435.34;5079536;28;20512;-61
2023/03/05 08:09:10;;;;;;;11.30;8.05;;;;;;;28.77;37.22;99429.34;5071125;28;20039;-59
2023/03/05 08:11:52;;;;;;;21.05;8.90;;;;;;;28.52;37.24;99419.56;5077078;28;20048;-63
2023/03/05 08:14:41;;;;;;;17.83;8.73;;;;;;;28.68;37.34;99416.66;5070457;28;20044;-62
2023/03/05 08:17:23;;;;;;;24.45;8.32;;;;;;;28.77;37.50;99409.44;5087146;28;20062;-61
2023/03/05 08:20:13;;;;;;;12.93;7.80;;;;;;;28.77;37.19;99401.28;5087171;28;20081;-61
2023/03/05 08:22:55;;;;;;;22.25;9.82;;;;;;;28.71;36.88;99399.75;5090234;28;20673;-61
2023/03/05 08:25:44;;;;;;;15.77;9.30;;;;;;;28.61;36.46;99394.38;5087765;28;20131;-62
2023/03/05 08:28:26;;;;;;;16.20;8.55;;;;;;;28.65;36.88;99381.78;5085600;28;20758;-62
2023/03/05 08:31:17;;;;;;;19.55;8.52;;;;;;;28.59;35.01;99379.13;5092269;28;20558;-64
2023/03/05 08:34:13;;;;;;;14.45;9.85;;;;;;;28.69;36.40;99382.81;5087936;28;20048;-61
2023/03/05 08:36:49;;;;;;;20.13;11.27;;;;;;;28.68;36.87;99367.59;5075377;28;20040;-62
2023/03/05 08:39:44;;;;;;;20.42;10.90;;;;;;;28.54;36.71;99367.50;5088432;28;20043;-61
2023/03/05 08:42:20;;;;;;;12.68;8.48;;;;;;;28.48;36.60;99355.03;5091593;28;20044;-61
2023/03/05 08:45:16;;;;;;;15.00;8.77;;;;;;;28.42;36.12;99346.13;5093026;28;20078;-60
2023/03/05 08:47:52;;;;;;;18.02;9.73;;;;;;;28.53;37.92;99355.78;5093954;28;20047;-61
2023/03/05 08:50:48;;;;;;;17.33;10.25;;;;;;;28.43;36.46;99336.84;5089902;28;20143;-59
2023/03/05 08:53:24;;;;;;;14.77;9.95;;;;;;;28.45;36.75;99334.66;5092406;28;20048;-61
2023/03/05 08:56:14;;;;;;;17.13;10.80;;;;;;;28.30;36.94;99329.41;5088320;28;20043;-62
2023/03/05 08:58:56;;;;;;;;;;;;;;;28.31;36.13;99320.13;5080591;28;20047;-61
2023/03/05 09:01:45;;;;;;;20.08;11.55;;;;;;;28.21;36.54;99303.91;5083806;28;19924;-62
2023/03/05 09:04:27;;;;;;;23.33;11.00;;;;;;;28.13;38.70;99318.19;5057690;28;20492;-61
2023/03/05 09:07:23;;;;;;;19.40;11.05;;;;;;;28.22;38.25;99315.63;5060435;28;20743;-60
2023/03/05 09:09:59;;;;;;;18.00;11.70;;;;;;;28.04;36.51;99311.72;5052094;28;20052;-61
2023/03/05 09:12:54;;;;;;;26.80;11.15;;;;;;;27.94;37.51;99303.69;5043325;28;20059;-61
2023/03/05 09:15:30;;;;;;;14.85;10.15;;;;;;;27.95;37.39;99295.22;5058531;28;20082;-61
2023/03/05 09:18:25;;;;;;;18.05;10.65;;;;;;;27.94;37.60;99295.50;5070101;28;20737;-62
2023/03/05 09:21:07;;;;;;;20.50;11.38;;;;;;;27.95;37.52;99297.13;5076246;28;20075;-61
2023/03/05 09:24:03;;;;;;;18.05;10.98;;;;;;;27.94;36.84;99285.44;5077533;28;20143;-60
2023/03/05 09:26:40;;;;;;;20.73;11.27;;;;;;;27.91;36.73;99277.03;5075438;28;20044;-61
2023/03/05 09:29:36;;;;;;;19.13;11.05;;;;;;;27.96;38.84;99276.97;5074036;28;20056;-58
2023/03/05 09:32:15;;;;;;;24.83;10.45;;;;;;;27.91;37.21;99264.25;5056376;28;20118;-59
2023/03/05 09:35:11;;;;;;;22.15;10.90;;;;;;;27.70;39.43;99276.50;5073014;28;20053;-61
2023/03/05 09:37:47;;;;;;;17.30;10.00;;;;;;;27.55;39.46;99266.59;5072250;28;20059;-61
2023/03/05 09:41:14;;;;;;;17.23;9.75;;;;;;;27.56;38.51;99261.94;5059812;28;20048;-61
2023/03/05 09:44:27;;;;;;;16.40;10.43;;;;;;;27.31;37.48;99246.66;5028547;28;20048;-61
2023/03/05 09:47:43;;;;;;;22.02;10.43;;;;;;;27.48;38.38;99252.53;5054719;28;20121;-61
2023/03/05 09:50:32;;;;;;;17.70;9.63;;;;;;;27.51;38.37;99249.22;5055432;28;20052;-60
2023/03/05 09:53:55;;;;;;;14.93;9.40;;;;;;;27.48;39.84;99249.81;5048748;28;20055;-59
2023/03/05 09:56:36;;;;;;;14.55;8.32;;;;;;;27.47;38.36;99237.25;5055181;28;20462;-59
2023/03/05 09:59:42;;;;;;;13.75;8.27;;;;;;;27.53;37.43;99238.84;5053573;28;20167;-61
2023/03/05 10:02:42;;;;;;;16.92;8.57;;;;;;;27.43;37.72;99236.22;5051196;28;20091;-59
2023/03/05 10:05:58;;;;;;;22.13;9.00;;;;;;;27.48;39.20;99233.47;5061193;28;20170;-59
2023/03/05 10:09:02;;;;;;;11.50;8.65;;;;;;;27.46;39.42;99235.63;5055778;28;20044;-59
2023/03/05 10:12:02;;;;;;;14.77;8.10;;;;;;;27.41;38.97;99229.44;5054154;28;20132;-58
2023/03/05 10:14:51;;;;;;;15.73;8.15;;;;;;;27.39;38.16;99218.03;5057769;28;20126;-58
2023/03/05 10:17:33;;;;;;;17.98;8.23;;;;;;;27.31;39.56;99214.03;5061669;28;20048;-61
2023/03/05 10:20:46;;;;;;;17.15;7.05;;;;;;;27.29;38.26;99215.44;5059043;28;20413;-60
2023/03/05 10:23:49;;;;;;;18.00;8.63;;;;;;;27.25;39.47;99217.91;5059106;28;20122;-62
2023/03/05 10:27:13;;;;;;;11.10;7.03;;;;;;;27.30;38.81;99214.34;5057712;28;20044;-61
2023/03/05 10:30:25;;;;;;;12.55;7.25;;;;;;;27.30;37.95;99206.19;5058766;28;20044;-57
2023/03/05 10:33:31;;;;;;;19.67;6.93;;;;;;;27.33;38.04;99206.41;5057365;28;20049;-59
2023/03/05 10:36:48;;;;;;;12.70;6.65;;;;;;;27.26;38.07;99204.00;5053504;28;20051;-61
2023/03/05 10:39:56;;;;;;;11.73;6.95;;;;;;;27.37;38.93;99207.44;5061479;28;20805;-60
2023/03/05 10:43:01;;;;;;;10.70;7.00;;;;;;;27.32;37.28;99204.78;5063166;28;20605;-61
2023/03/05 10:45:53;;;;;;;11.88;6.55;;;;;;;27.26;37.87;99193.13;5016206;28;20087;-60
2023/03/05 10:48:52;;;;;;;13.88;6.43;;;;;;;27.12;38.65;99207.72;5052254;28;20051;-59
2023/03/05 10:51:40;;;;;;;10.82;5.80;;;;;;;27.11;37.97;99198.75;5051070;28;20059;-60
2023/03/05 10:54:34;;;;;;;12.95;5.60;;;;;;;27.08;38.13;99193.09;5038507;28;20052;-61
2023/03/05 10:57:27;;;;;;;7.88;6.43;;;;;;;27.04;37.01;99198.25;5033018;28;20114;-61
2023/03/05 11:00:27;;;;;;;10.70;6.82;;;;;;;27.03;38.83;99195.84;5047353;28;20048;-61
2023/03/05 11:03:23;;;;;;;13.23;7.45;;;;;;;26.90;39.33;99194.63;5050557;28;21578;-61
2023/03/05 11:06:05;;;;;;;14.73;6.70;;;;;;;26.83;38.63;99197.63;5041942;28;20045;-59
2023/03/05 11:08:54;;;;;;;10.20;6.30;;;;;;;26.74;37.23;99193.09;5054493;28;20045;-61
2023/03/05 11:11:37;;;;;;;15.05;6.43;;;;;;;26.69;37.74;99193.13;5057552;28;20052;-59
2023/03/05 11:14:32;;;;;;;19.17;6.70;;;;;;;26.64;38.56;99195.94;5060576;28;20048;-59
2023/03/05 11:17:47;;;;;;;11.77;6.47;;;;;;;26.64;39.16;99204.09;5067987;28;20561;-60
2023/03/05 11:20:42;;;;;;;10.30;6.22;;;;;;;26.67;37.15;99195.34;5057524;28;20055;-58
2023/03/05 11:23:24;;;;;;;7.65;5.97;;;;;;;26.64;39.50;99194.00;5014346;28;20064;-60
2023/03/05 11:26:19;;;;;;;13.82;6.63;;;;;;;26.56;39.38;99185.66;5059233;28;20086;-59
2023/03/05 11:29:03;;;;;;;11.10;6.50;;;;;;;26.50;39.07;99190.34;5057147;28;20059;-59
2023/03/05 11:31:52;;;;;;;12.55;7.07;;;;;;;26.45;39.29;99184.94;5057438;28;20052;-59
2023/03/05 11:34:34;;;;;;;13.00;6.47;;;;;;;26.38;40.33;99190.69;5047851;28;20707;-62
2023/03/05 11:37:37;;;;;;;12.43;6.22;;;;;;;26.28;39.80;99189.97;5065031;28;20056;-61
2023/03/05 11:40:31;;;;;;;12.18;5.68;;;;;;;26.26;38.42;99189.44;5067776;28;20052;-61
2023/03/05 11:43:29;;;;;;;12.52;5.40;;;;;;;26.21;38.26;99186.75;5063283;28;20048;-58
2023/03/05 11:46:12;;;;;;;9.40;5.32;;;;;;;26.22;37.78;99191.91;5059654;28;20634;-62
2023/03/05 11:49:03;;;;;;;9.88;5.63;;;;;;;26.24;38.30;99188.91;5058788;28;20751;-58
2023/03/05 11:52:23;;;;;;;12.70;5.93;;;;;;;26.13;38.42;99188.13;5045884;28;20055;-60
2023/03/05 11:54:59;;;;;;;7.40;4.85;;;;;;;26.07;38.97;99193.88;5063773;28;20044;-60
2023/03/05 11:58:06;;;;;;;16.27;5.47;;;;;;;25.99;38.37;99192.56;5054616;28;20055;-60
2023/03/05 12:00:45;;;;;;;8.82;4.97;;;;;;;25.95;39.50;99191.50;5049785;28;20130;-61
2023/03/05 12:03:37;;;;;;;15.43;5.32;;;;;;;25.88;40.26;99197.25;5051591;28;20079;-59
2023/03/05 12:06:24;;;;;;;11.00;4.60;;;;;;;25.86;38.08;99194.00;5065309;28;20036;-60
2023/03/05 12:09:36;;;;;;;10.80;5.03;;;;;;;25.77;39.36;99201.09;5074521;28;20153;-57
2023/03/05 12:12:37;;;;;;;16.75;5.03;;;;;;;25.63;41.99;99197.38;5073995;28;20534;-59
2023/03/05 12:15:51;;;;;;;10.32;4.90;;;;;;;25.59;38.78;99195.47;5079172;28;20048;-58
2023/03/05 12:18:36;;;;;;;10.82;5.53;;;;;;;25.55;37.95;99197.13;5084281;28;20047;-58
2023/03/05 12:21:46;;;;;;;11.25;5.53;;;;;;;25.51;38.57;99202.28;5084085;28;20501;-59
2023/03/05 12:24:25;;;;;;;11.85;5.10;;;;;;;25.45;39.59;99197.94;5084540;28;20047;-61
2023/03/05 12:27:38;;;;;;;8.48;5.05;;;;;;;25.37;40.22;99202.06;5070070;28;20057;-61
2023/03/05 12:30:30;;;;;;;9.02;5.00;;;;;;;25.32;41.10;99201.25;5069503;28;20056;-60
2023/03/05 12:33:47;;;;;;;14.50;6.15;;;;;;;25.24;41.29;99199.94;5070491;28;20535;-61
2023/03/05 12:36:23;;;;;;;12.80;5.20;;;;;;;25.18;40.85;99206.44;5077397;28;20118;-61
2023/03/05 12:39:48;;;;;;;14.60;4.97;;;;;;;25.12;40.89;99209.44;5070758;28;20072;-60
2023/03/05 12:42:30;;;;;;;8.23;5.22;;;;;;;25.05;42.45;99220.56;5080565;28;20066;-61
2023/03/05 12:45:32;;;;;;;9.82;4.20;;;;;;;24.92;42.45;99216.53;5084912;28;20105;-60
2023/03/05 12:48:13;;;;;;;10.68;5.13;;;;;;;24.88;42.15;99218.16;5088285;28;20050;-59
2023/03/05 12:51:09;;;;;;;8.80;4.65;;;;;;;24.82;41.75;99218.41;5086008;28;20877;-60
2023/03/05 12:53:50;;;;;;;13.27;5.40;;;;;;;24.79;42.54;99224.38;5083665;28;20080;-62
2023/03/05 12:56:52;;;;;;;13.20;6.47;;;;;;;24.73;43.50;99226.28;5052547;28;20059;-61
2023/03/05 13:00:11;;;;;;;12.10;5.32;;;;;;;24.68;44.50;99226.28;5082085;28;20078;-60
2023/03/05 13:03:07;;;;;;;10.38;5.80;;;;;;;24.58;43.06;99231.69;5067484;28;20521;-61